sensor_id;sensor_type;location;lat;lon;timestamp;P1;durP1;ratioP1;P2;durP2;ratioP2
18473;SDS011;30265;52.408;13.500;2023-08-30T00:06:44;0.50;;;0.50;;
18473;SDS011;30265;52.408;13.500;2023-08-30T00:17:06;0.50;;;0.50;;
18473;SDS011;30265;52.408;13.500;2023-08-30T00:27:29;0.60;;;0.60;;
18473;SDS011;30265;52.408;13.500;2023-08-30T00:37:51;0.50;;;0.50;;
18473;SDS011;30265;52.408;13.500;2023-08-30T00:48:15;0.50;;;0.50;;
18473;SDS011;30265;52.408;13.500;2023-08-30T00:58:39;0.50;;;0.50;;
18473;SDS011;30265;52.408;13.500;2023-08-30T01:09:02;0.50;;;0.50;;
18473;SDS011;30265;52.408;13.500;2023-08-30T01:19:31;0.50;;;0.50;;
18473;SDS011;30265;52.408;13.500;2023-08-30T01:40:30;0.50;;;0.50;;
18473;SDS011;30265;52.408;13.500;2023-08-30T01:51:00;0.50;;;0.50;;
18473;SDS011;30265;52.408;13.500;2023-08-30T02:01:22;0.50;;;0.50;;
18473;SDS011;30265;52.408;13.500;2023-08-30T02:11:46;0.60;;;0.60;;
18473;SDS011;30265;52.408;13.500;2023-08-30T02:22:12;0.50;;;0.50;;
18473;SDS011;30265;52.408;13.500;2023-08-30T02:32:35;0.50;;;0.50;;
18473;SDS011;30265;52.408;13.500;2023-08-30T02:42:57;0.50;;;0.50;;
18473;SDS011;30265;52.408;13.500;2023-08-30T02:53:20;0.50;;;0.50;;
18473;SDS011;30265;52.408;13.500;2023-08-30T03:03:43;0.50;;;0.50;;
18473;SDS011;30265;52.408;13.500;2023-08-30T03:14:07;0.50;;;0.50;;
18473;SDS011;30265;52.408;13.500;2023-08-30T03:24:31;0.50;;;0.50;;
18473;SDS011;30265;52.408;13.500;2023-08-30T03:34:55;0.60;;;0.60;;
18473;SDS011;30265;52.408;13.500;2023-08-30T03:45:17;0.50;;;0.50;;
18473;SDS011;30265;52.408;13.500;2023-08-30T03:55:41;0.50;;;0.50;;
18473;SDS011;30265;52.408;13.500;2023-08-30T04:06:04;0.50;;;0.50;;
18473;SDS011;30265;52.408;13.500;2023-08-30T04:16:27;0.50;;;0.50;;
18473;SDS011;30265;52.408;13.500;2023-08-30T04:26:49;0.50;;;0.50;;
18473;SDS011;30265;52.408;13.500;2023-08-30T04:37:16;0.60;;;0.60;;
18473;SDS011;30265;52.408;13.500;2023-08-30T04:47:37;0.60;;;0.60;;
18473;SDS011;30265;52.408;13.500;2023-08-30T04:58:01;0.60;;;0.60;;
18473;SDS011;30265;52.408;13.500;2023-08-30T05:08:27;0.60;;;0.60;;
18473;SDS011;30265;52.408;13.500;2023-08-30T05:18:51;0.50;;;0.50;;
18473;SDS011;30265;52.408;13.500;2023-08-30T05:29:13;0.50;;;0.50;;
18473;SDS011;30265;52.408;13.500;2023-08-30T05:39:36;0.50;;;0.50;;
18473;SDS011;30265;52.408;13.500;2023-08-30T05:49:58;0.45;;;0.45;;
18473;SDS011;30265;52.408;13.500;2023-08-30T06:00:21;0.50;;;0.50;;
18473;SDS011;30265;52.408;13.500;2023-08-30T06:10:43;0.50;;;0.50;;
18473;SDS011;30265;52.408;13.500;2023-08-30T06:21:07;0.50;;;0.50;;
18473;SDS011;30265;52.408;13.500;2023-08-30T06:31:28;0.50;;;0.50;;
18473;SDS011;30265;52.408;13.500;2023-08-30T06:41:53;0.50;;;0.50;;
18473;SDS011;30265;52.408;13.500;2023-08-30T06:52:19;0.50;;;0.50;;
18473;SDS011;30265;52.408;13.500;2023-08-30T07:02:42;0.40;;;0.40;;
18473;SDS011;30265;52.408;13.500;2023-08-30T07:13:06;0.40;;;0.40;;
18473;SDS011;30265;52.408;13.500;2023-08-30T07:23:32;0.40;;;0.40;;
18473;SDS011;30265;52.408;13.500;2023-08-30T07:33:53;0.30;;;0.30;;
18473;SDS011;30265;52.408;13.500;2023-08-30T07:44:18;0.40;;;0.40;;
18473;SDS011;30265;52.408;13.500;2023-08-30T07:54:40;0.30;;;0.30;;
18473;SDS011;30265;52.408;13.500;2023-08-30T08:05:04;0.40;;;0.40;;
18473;SDS011;30265;52.408;13.500;2023-08-30T08:15:27;0.40;;;0.40;;
18473;SDS011;30265;52.408;13.500;2023-08-30T08:25:57;0.30;;;0.30;;
18473;SDS011;30265;52.408;13.500;2023-08-30T08:36:20;0.32;;;0.32;;
18473;SDS011;30265;52.408;13.500;2023-08-30T08:46:43;0.30;;;0.30;;
18473;SDS011;30265;52.408;13.500;2023-08-30T08:57:05;0.30;;;0.30;;
18473;SDS011;30265;52.408;13.500;2023-08-30T09:07:30;0.20;;;0.20;;
18473;SDS011;30265;52.408;13.500;2023-08-30T09:17:53;0.28;;;0.28;;
18473;SDS011;30265;52.408;13.500;2023-08-30T09:28:17;0.20;;;0.20;;
18473;SDS011;30265;52.408;13.500;2023-08-30T09:38:38;0.20;;;0.20;;
18473;SDS011;30265;52.408;13.500;2023-08-30T09:49:01;0.28;;;0.28;;
18473;SDS011;30265;52.408;13.500;2023-08-30T09:59:25;0.30;;;0.30;;
18473;SDS011;30265;52.408;13.500;2023-08-30T10:09:49;0.20;;;0.20;;
18473;SDS011;30265;52.408;13.500;2023-08-30T10:20:28;0.10;;;0.10;;
18473;SDS011;30265;52.408;13.500;2023-08-30T10:30:53;0.20;;;0.20;;
18473;SDS011;30265;52.408;13.500;2023-08-30T10:41:19;0.20;;;0.20;;
18473;SDS011;30265;52.408;13.500;2023-08-30T10:51:42;0.10;;;0.10;;
18473;SDS011;30265;52.408;13.500;2023-08-30T11:02:05;0.10;;;0.10;;
18473;SDS011;30265;52.408;13.500;2023-08-30T11:12:29;0.10;;;0.10;;
18473;SDS011;30265;52.408;13.500;2023-08-30T11:22:51;0.20;;;0.20;;
18473;SDS011;30265;52.408;13.500;2023-08-30T11:33:17;0.10;;;0.10;;
18473;SDS011;30265;52.408;13.500;2023-08-30T11:43:55;0.10;;;0.10;;
18473;SDS011;30265;52.408;13.500;2023-08-30T11:54:23;0.10;;;0.10;;
18473;SDS011;30265;52.408;13.500;2023-08-30T12:04:46;0.10;;;0.10;;
18473;SDS011;30265;52.408;13.500;2023-08-30T12:15:10;0.10;;;0.10;;
18473;SDS011;30265;52.408;13.500;2023-08-30T12:35:57;0.20;;;0.20;;
18473;SDS011;30265;52.408;13.500;2023-08-30T12:46:19;0.25;;;0.25;;
18473;SDS011;30265;52.408;13.500;2023-08-30T12:56:42;0.20;;;0.20;;
18473;SDS011;30265;52.408;13.500;2023-08-30T13:07:04;0.20;;;0.20;;
18473;SDS011;30265;52.408;13.500;2023-08-30T13:17:27;0.10;;;0.10;;
18473;SDS011;30265;52.408;13.500;2023-08-30T13:27:51;0.05;;;0.05;;
18473;SDS011;30265;52.408;13.500;2023-08-30T13:38:15;0.10;;;0.10;;
18473;SDS011;30265;52.408;13.500;2023-08-30T13:48:36;0.10;;;0.10;;
18473;SDS011;30265;52.408;13.500;2023-08-30T13:58:59;0.10;;;0.10;;
18473;SDS011;30265;52.408;13.500;2023-08-30T14:09:22;0.00;;;0.00;;
18473;SDS011;30265;52.408;13.500;2023-08-30T14:19:45;0.10;;;0.10;;
18473;SDS011;30265;52.408;13.500;2023-08-30T14:30:08;0.10;;;0.10;;
18473;SDS011;30265;52.408;13.500;2023-08-30T14:40:32;0.00;;;0.00;;
18473;SDS011;30265;52.408;13.500;2023-08-30T14:50:56;0.00;;;0.00;;
18473;SDS011;30265;52.408;13.500;2023-08-30T15:01:19;0.00;;;0.00;;
18473;SDS011;30265;52.408;13.500;2023-08-30T15:11:40;0.10;;;0.10;;
18473;SDS011;30265;52.408;13.500;2023-08-30T15:22:03;0.10;;;0.10;;
18473;SDS011;30265;52.408;13.500;2023-08-30T15:32:25;0.10;;;0.10;;
18473;SDS011;30265;52.408;13.500;2023-08-30T15:42:50;0.20;;;0.20;;
18473;SDS011;30265;52.408;13.500;2023-08-30T15:53:11;0.10;;;0.10;;
18473;SDS011;30265;52.408;13.500;2023-08-30T16:03:34;0.20;;;0.20;;
18473;SDS011;30265;52.408;13.500;2023-08-30T16:13:59;0.20;;;0.20;;
18473;SDS011;30265;52.408;13.500;2023-08-30T16:24:23;0.20;;;0.20;;
18473;SDS011;30265;52.408;13.500;2023-08-30T16:34:47;0.20;;;0.20;;
18473;SDS011;30265;52.408;13.500;2023-08-30T16:45:11;0.10;;;0.10;;
18473;SDS011;30265;52.408;13.500;2023-08-30T16:55:34;0.10;;;0.10;;
18473;SDS011;30265;52.408;13.500;2023-08-30T17:05:57;0.15;;;0.15;;
18473;SDS011;30265;52.408;13.500;2023-08-30T17:16:20;0.20;;;0.20;;
18473;SDS011;30265;52.408;13.500;2023-08-30T17:26:45;0.30;;;0.30;;
18473;SDS011;30265;52.408;13.500;2023-08-30T17:37:07;0.22;;;0.22;;
18473;SDS011;30265;52.408;13.500;2023-08-30T17:47:31;0.30;;;0.30;;
18473;SDS011;30265;52.408;13.500;2023-08-30T17:57:54;0.40;;;0.40;;
18473;SDS011;30265;52.408;13.500;2023-08-30T18:08:19;0.40;;;0.40;;
18473;SDS011;30265;52.408;13.500;2023-08-30T18:18:47;0.40;;;0.40;;
18473;SDS011;30265;52.408;13.500;2023-08-30T18:29:25;0.40;;;0.40;;
18473;SDS011;30265;52.408;13.500;2023-08-30T18:39:49;0.40;;;0.40;;
18473;SDS011;30265;52.408;13.500;2023-08-30T18:50:13;0.40;;;0.40;;
18473;SDS011;30265;52.408;13.500;2023-08-30T19:00:35;0.40;;;0.40;;
18473;SDS011;30265;52.408;13.500;2023-08-30T19:10:59;0.40;;;0.40;;
18473;SDS011;30265;52.408;13.500;2023-08-30T19:21:24;0.50;;;0.50;;
18473;SDS011;30265;52.408;13.500;2023-08-30T19:31:50;0.40;;;0.40;;
18473;SDS011;30265;52.408;13.500;2023-08-30T19:42:13;0.50;;;0.50;;
18473;SDS011;30265;52.408;13.500;2023-08-30T19:52:38;0.50;;;0.50;;
18473;SDS011;30265;52.408;13.500;2023-08-30T20:03:00;0.40;;;0.40;;
18473;SDS011;30265;52.408;13.500;2023-08-30T20:13:27;0.50;;;0.50;;
18473;SDS011;30265;52.408;13.500;2023-08-30T20:23:48;0.40;;;0.40;;
18473;SDS011;30265;52.408;13.500;2023-08-30T20:34:12;0.40;;;0.40;;
18473;SDS011;30265;52.408;13.500;2023-08-30T20:44:34;0.45;;;0.45;;
18473;SDS011;30265;52.408;13.500;2023-08-30T20:54:57;0.47;;;0.47;;
18473;SDS011;30265;52.408;13.500;2023-08-30T21:05:25;0.50;;;0.50;;
18473;SDS011;30265;52.408;13.500;2023-08-30T21:15:49;0.50;;;0.50;;
18473;SDS011;30265;52.408;13.500;2023-08-30T21:26:11;0.40;;;0.40;;
18473;SDS011;30265;52.408;13.500;2023-08-30T21:36:34;0.43;;;0.43;;
18473;SDS011;30265;52.408;13.500;2023-08-30T21:46:56;0.43;;;0.43;;
18473;SDS011;30265;52.408;13.500;2023-08-30T21:57:19;0.50;;;0.50;;
18473;SDS011;30265;52.408;13.500;2023-08-30T22:07:41;0.40;;;0.40;;
18473;SDS011;30265;52.408;13.500;2023-08-30T22:18:04;0.50;;;0.50;;
18473;SDS011;30265;52.408;13.500;2023-08-30T22:28:26;0.50;;;0.50;;
18473;SDS011;30265;52.408;13.500;2023-08-30T22:38:50;0.40;;;0.40;;
18473;SDS011;30265;52.408;13.500;2023-08-30T22:49:11;0.50;;;0.50;;
18473;SDS011;30265;52.408;13.500;2023-08-30T22:59:35;0.50;;;0.50;;
18473;SDS011;30265;52.408;13.500;2023-08-30T23:09:57;0.50;;;0.50;;
18473;SDS011;30265;52.408;13.500;2023-08-30T23:20:20;0.50;;;0.50;;
18473;SDS011;30265;52.408;13.500;2023-08-30T23:30:42;0.50;;;0.50;;
18473;SDS011;30265;52.408;13.500;2023-08-30T23:41:06;0.40;;;0.40;;
18473;SDS011;30265;52.408;13.500;2023-08-30T23:51:28;0.50;;;0.50;;
